Huvudsida
METAR-TAF:

METAR-TAF

Flygplatser :

Dundee Riverside Airport

Dundee, Skottland

latitud: 56-27N, longitud: 003-01W, höjd: 4 m

Aktuellt väderrapport

Denna rapport gjordes för 24 minuter sedan, klockan 15:50 UTC
Vind 3 kt från ost
Temperatur 5°C
Fuktighet 93%
Tryck 1001 hPa
Sikt 10 km eller mer
Spridda moln på en höjd av 2700 ft

METAR: EGPN 161550Z 09003KT 9999 SCT027 05/04 Q1001

Tid: 16:14 (16:14 UTC)

Väderprognos

Denna rapport gjordes för 2 timmar och 10 minuter sedan, klockan 14:04 UTC
Prognos gäller från 16 kl. 15 UTC till 16 kl. 21 UTC
Vind 4 kt varierande vindriktning
Sikt 10 km eller mer
Spridda moln på en höjd av 3500 ft
Sannolikhet 40% :
Temporärt
från 16 kl. 17 UTC till 16 kl. 20 UTC
Vind 10 kt från sydost

TAF: EGPN 161404Z 1615/1621 VRB04KT 9999 SCT035 PROB40 TEMPO 1617/1620 13010KT

Aktuella väderrapporter och prognoser från 4000 flygplatser (METAR- och TAF-rapporter).

De tillgängliga stationerna syns som gula och röda prickar på kartan.

För musen över prickarna för att se namnen på stationerna.

Klicka sedan för att få väderrapporter och prognoser.

För att ändra kartan: Klicka på de gröna knapparna med ett svart kors på för att zooma in; den gröna knappen med ett streck på för att zooma ut; eller på de gröna pilarna för angränsande kartor.


METAR-TAF: